Time;durP1;ratioP1;P1;durP2;ratioP2;P2;SDS_P1;SDS_P2;PMS_P1;PMS_P2;Temp;Humidity;BMP_temperature;BMP_pressure;BME280_temperature;BME280_humidity;BME280_pressure;Samples;Min_cycle;Max_cycle;Signal;HPM_P1;HPM_P2
2022/09/10 00:01:22;;;;;;;1.37;0.30;;;15.40;99.90;;;;;;5158915;27;20781;-72
2022/09/10 00:03:49;;;;;;;2.77;0.20;;;15.40;99.90;;;;;;5157201;27;20447;-72
2022/09/10 00:06:18;;;;;;;0.40;0.20;;;15.40;99.90;;;;;;5158728;27;20466;-72
2022/09/10 00:08:45;;;;;;;0.60;0.20;;;15.30;99.90;;;;;;5156490;27;20450;-72
2022/09/10 00:11:13;;;;;;;0.40;0.20;;;15.30;99.90;;;;;;5159053;27;20742;-72
2022/09/10 00:13:41;;;;;;;0.40;0.20;;;15.20;99.90;;;;;;5155512;27;20886;-73
2022/09/10 00:16:12;;;;;;;0.47;0.20;;;15.20;99.90;;;;;;5157170;27;20506;-72
2022/09/10 00:18:39;;;;;;;0.50;0.30;;;15.20;99.90;;;;;;5153344;27;20487;-72
2022/09/10 00:21:09;;;;;;;0.40;0.20;;;15.20;99.90;;;;;;5157408;27;20816;-72
2022/09/10 00:23:36;;;;;;;0.40;0.20;;;15.10;99.90;;;;;;5156497;27;20535;-72
2022/09/10 00:26:10;;;;;;;0.40;0.20;;;15.10;99.90;;;;;;5157093;27;20525;-72
2022/09/10 00:28:37;;;;;;;0.60;0.23;;;15.20;99.90;;;;;;5154764;27;20442;-73
2022/09/10 00:31:04;;;;;;;0.70;0.20;;;15.20;99.90;;;;;;5157787;27;21036;-71
2022/09/10 00:33:33;;;;;;;0.40;0.20;;;15.30;99.90;;;;;;5152905;27;20816;-72
2022/09/10 00:35:59;;;;;;;0.30;0.10;;;15.20;99.90;;;;;;5155482;27;20445;-72
2022/09/10 00:38:28;;;;;;;0.40;0.20;;;15.30;99.90;;;;;;5156428;27;20530;-73
2022/09/10 00:41:03;;;;;;;0.50;0.20;;;15.30;99.90;;;;;;5157914;27;20443;-72
2022/09/10 00:43:53;;;;;;;0.30;0.10;;;15.30;99.90;;;;;;5156131;27;20477;-72
2022/09/10 00:46:29;;;;;;;0.40;0.10;;;15.40;99.90;;;;;;5156581;27;20487;-71
2022/09/10 00:49:01;;;;;;;0.40;0.17;;;15.40;99.90;;;;;;5153879;27;20541;-74
2022/09/10 00:51:32;;;;;;;0.50;0.20;;;15.40;99.90;;;;;;5156645;27;20775;-73
2022/09/10 00:54:01;;;;;;;0.40;0.10;;;15.40;99.90;;;;;;5155450;27;20534;-72
2022/09/10 00:56:29;;;;;;;0.30;0.20;;;15.40;99.90;;;;;;5157123;27;20568;-72
2022/09/10 00:58:57;;;;;;;0.30;0.20;;;15.40;99.90;;;;;;5159433;27;20936;-72
2022/09/10 01:01:23;;;;;;;0.30;0.10;;;15.40;99.90;;;;;;5162507;27;20938;-71
2022/09/10 01:03:52;;;;;;;0.30;0.10;;;15.40;99.90;;;;;;5160837;27;20905;-72
2022/09/10 01:06:21;;;;;;;0.30;0.10;;;15.40;99.90;;;;;;5162029;27;20526;-72
2022/09/10 01:08:48;;;;;;;0.40;0.10;;;15.50;99.90;;;;;;5159973;27;20557;-72
2022/09/10 01:11:49;;;;;;;0.50;0.20;;;15.60;99.90;;;;;;5163298;27;20500;-72
2022/09/10 01:14:37;;;;;;;0.50;0.20;;;15.60;99.90;;;;;;5151027;27;20592;-72
2022/09/10 01:17:14;;;;;;;0.30;0.10;;;15.60;99.90;;;;;;5161753;27;20554;-71
2022/09/10 01:20:01;;;;;;;0.30;0.10;;;15.50;99.90;;;;;;5159151;27;20496;-72
2022/09/10 01:22:43;;;;;;;0.30;0.10;;;15.50;99.90;;;;;;5161353;27;20502;-71
2022/09/10 01:25:22;;;;;;;0.30;0.10;;;15.40;99.90;;;;;;5158951;27;20545;-72
2022/09/10 01:27:54;;;;;;;0.30;0.10;;;15.40;99.90;;;;;;5160094;27;20529;-72
2022/09/10 01:30:23;;;;;;;0.30;0.20;;;15.50;99.90;;;;;;5160386;27;20806;-72
2022/09/10 01:32:57;;;;;;;0.30;0.20;;;15.40;99.90;;;;;;5160764;27;20546;-72
2022/09/10 01:35:31;;;;;;;0.60;0.10;;;15.40;99.90;;;;;;5159967;27;20506;-72
2022/09/10 01:38:03;;;;;;;0.40;0.20;;;15.30;99.90;;;;;;5160636;27;20537;-71
2022/09/10 01:40:31;;;;;;;0.70;0.20;;;15.30;99.90;;;;;;5161270;27;20751;-73
2022/09/10 01:43:01;;;;;;;0.30;0.10;;;15.20;99.90;;;;;;5162051;27;20439;-72
2022/09/10 01:45:29;;;;;;;0.60;0.20;;;15.30;99.90;;;;;;5161619;27;20521;-71
2022/09/10 01:48:16;;;;;;;0.30;0.10;;;15.30;99.90;;;;;;5161005;27;20774;-72
2022/09/10 01:50:49;;;;;;;0.37;0.20;;;15.40;99.90;;;;;;5161097;27;20472;-72
2022/09/10 01:53:46;;;;;;;0.40;0.20;;;15.60;99.90;;;;;;5159473;27;20522;-72
2022/09/10 01:56:23;;;;;;;0.30;0.10;;;15.60;99.90;;;;;;5161727;27;20538;-71
2022/09/10 01:58:55;;;;;;;0.40;0.20;;;15.50;99.90;;;;;;5158847;27;20446;-71
2022/09/10 02:01:26;;;;;;;0.30;0.20;;;15.50;99.90;;;;;;5160072;27;20534;-72
2022/09/10 02:03:58;;;;;;;0.33;0.13;;;15.50;99.90;;;;;;5160513;27;20526;-73
2022/09/10 02:06:29;;;;;;;0.40;0.20;;;15.30;99.90;;;;;;5160252;27;20447;-72
2022/09/10 02:08:58;;;;;;;0.30;0.10;;;15.20;99.90;;;;;;5160132;27;20497;-72
2022/09/10 02:11:25;;;;;;;0.40;0.10;;;15.10;99.90;;;;;;5161269;27;20801;-71
2022/09/10 02:13:54;;;;;;;0.37;0.13;;;15.10;99.90;;;;;;5158960;27;20457;-72
2022/09/10 02:16:25;;;;;;;0.30;0.10;;;15.10;99.90;;;;;;5160565;27;20485;-72
2022/09/10 02:18:52;;;;;;;0.97;0.23;;;15.10;99.90;;;;;;5157940;27;20512;-72
2022/09/10 02:21:19;;;;;;;0.30;0.13;;;15.10;99.90;;;;;;5160847;27;20522;-71
2022/09/10 02:23:50;;;;;;;0.30;0.13;;;15.10;99.90;;;;;;5158875;27;20473;-71
2022/09/10 02:26:17;;;;;;;0.43;0.10;;;15.00;99.90;;;;;;5160549;27;20529;-71
2022/09/10 02:28:44;;;;;;;0.50;0.20;;;15.00;99.90;;;;;;5158321;27;20530;-71
2022/09/10 02:31:13;;;;;;;1.13;0.30;;;15.00;99.90;;;;;;5160135;27;20533;-71
2022/09/10 02:33:39;;;;;;;0.30;0.20;;;14.90;99.90;;;;;;5155989;27;20455;-73
2022/09/10 02:36:06;;;;;;;0.47;0.20;;;14.90;99.90;;;;;;5159473;27;20443;-72
2022/09/10 02:38:33;;;;;;;0.40;0.20;;;14.80;99.90;;;;;;5157249;27;20549;-74
2022/09/10 02:41:00;;;;;;;0.67;0.20;;;14.70;99.90;;;;;;5160068;27;20482;-73
2022/09/10 02:43:27;;;;;;;0.60;0.20;;;14.70;99.90;;;;;;5159501;27;20539;-72
2022/09/10 02:45:56;;;;;;;0.30;0.10;;;14.70;99.90;;;;;;5160014;27;20530;-72
2022/09/10 02:48:26;;;;;;;1.33;0.20;;;14.60;99.90;;;;;;5157858;27;20458;-72
2022/09/10 02:50:53;;;;;;;0.40;0.20;;;14.70;99.90;;;;;;5159569;27;20917;-72
2022/09/10 02:53:20;;;;;;;0.53;0.20;;;14.70;99.90;;;;;;5158544;27;20478;-72
2022/09/10 02:55:48;;;;;;;0.70;0.20;;;14.70;99.90;;;;;;5160851;27;20438;-71
2022/09/10 02:58:15;;;;;;;0.53;0.20;;;14.70;99.90;;;;;;5160338;27;20945;-73
2022/09/10 03:00:44;;;;;;;0.60;0.20;;;14.70;99.90;;;;;;5159983;27;20500;-73
2022/09/10 03:03:11;;;;;;;0.60;0.20;;;14.80;99.90;;;;;;5157967;27;20508;-73
2022/09/10 03:05:40;;;;;;;0.50;0.30;;;14.80;99.90;;;;;;5159974;27;20533;-71
2022/09/10 03:08:08;;;;;;;0.87;0.10;;;14.90;99.90;;;;;;5156970;27;20447;-71
2022/09/10 03:10:38;;;;;;;0.43;0.20;;;14.90;99.90;;;;;;5160122;27;20439;-71
2022/09/10 03:13:05;;;;;;;0.40;0.20;;;14.90;99.90;;;;;;5157924;27;20486;-71
2022/09/10 03:15:31;;;;;;;1.43;0.20;;;14.90;99.90;;;;;;5159287;27;20514;-72
2022/09/10 03:17:58;;;;;;;0.50;0.20;;;14.90;99.90;;;;;;5159250;27;20486;-72
2022/09/10 03:20:26;;;;;;;0.83;0.20;;;14.90;99.90;;;;;;5157095;27;20541;-71
2022/09/10 03:22:54;;;;;;;0.30;0.10;;;15.00;99.90;;;;;;5159798;27;20736;-71
2022/09/10 03:25:21;;;;;;;0.40;0.20;;;15.10;99.90;;;;;;5158019;27;20549;-72
2022/09/10 03:27:48;;;;;;;3.80;0.30;;;15.00;99.90;;;;;;5158875;27;20447;-71
2022/09/10 03:30:15;;;;;;;1.13;0.20;;;15.00;99.90;;;;;;5157129;27;20570;-72
2022/09/10 03:32:43;;;;;;;0.30;0.13;;;15.00;99.90;;;;;;5159281;27;20688;-71
2022/09/10 03:35:10;;;;;;;0.40;0.20;;;15.00;99.90;;;;;;5157381;27;20656;-72
2022/09/10 03:37:36;;;;;;;0.60;0.23;;;15.10;99.90;;;;;;5159107;27;20447;-72
2022/09/10 03:40:06;;;;;;;0.53;0.20;;;15.10;99.90;;;;;;5156742;27;20513;-72
2022/09/10 03:42:33;;;;;;;0.63;0.20;;;15.10;99.90;;;;;;5158412;27;20752;-72
2022/09/10 03:45:00;;;;;;;0.30;0.20;;;15.20;99.90;;;;;;5155654;27;20965;-71
2022/09/10 03:47:27;;;;;;;0.67;0.20;;;15.20;99.90;;;;;;5158251;27;20467;-71
2022/09/10 03:49:55;;;;;;;0.40;0.17;;;15.10;99.90;;;;;;5157119;27;20474;-71
2022/09/10 03:52:21;;;;;;;0.50;0.20;;;15.10;99.90;;;;;;5156490;27;20548;-71
2022/09/10 03:54:49;;;;;;;0.60;0.30;;;15.10;99.90;;;;;;5155212;27;20832;-71
2022/09/10 03:57:18;;;;;;;0.90;0.30;;;15.10;99.90;;;;;;5158337;27;20538;-72
2022/09/10 03:59:45;;;;;;;0.60;0.30;;;15.10;99.90;;;;;;5157468;27;20567;-73
2022/09/10 04:02:13;;;;;;;0.73;0.30;;;15.00;99.90;;;;;;5157413;27;20525;-72
2022/09/10 04:04:41;;;;;;;0.50;0.30;;;15.00;99.90;;;;;;5155661;27;20450;-73
2022/09/10 04:07:10;;;;;;;0.50;0.20;;;14.90;99.90;;;;;;5155958;27;20619;-72
2022/09/10 04:09:37;;;;;;;0.83;0.20;;;15.00;99.90;;;;;;5155511;27;20451;-73
2022/09/10 04:12:04;;;;;;;1.30;0.20;;;15.00;99.90;;;;;;5158230;27;21009;-72
2022/09/10 04:14:33;;;;;;;0.40;0.20;;;14.90;99.90;;;;;;5158394;27;20490;-72
2022/09/10 04:17:00;;;;;;;0.60;0.30;;;14.90;99.90;;;;;;5158910;27;20497;-72
2022/09/10 04:19:27;;;;;;;0.57;0.20;;;15.10;99.90;;;;;;5157062;27;20537;-72
2022/09/10 04:21:54;;;;;;;0.37;0.17;;;15.00;99.90;;;;;;5157808;27;20450;-72
2022/09/10 04:24:21;;;;;;;0.30;0.20;;;15.10;99.90;;;;;;5156326;27;20814;-71
2022/09/10 04:26:48;;;;;;;0.37;0.20;;;15.10;99.90;;;;;;5157794;27;20443;-72
2022/09/10 04:29:15;;;;;;;0.30;0.20;;;15.00;99.90;;;;;;5155769;27;20490;-71
2022/09/10 04:31:45;;;;;;;0.60;0.20;;;15.00;99.90;;;;;;5157516;27;20741;-73
2022/09/10 04:34:12;;;;;;;0.80;0.20;;;15.00;99.90;;;;;;5156822;27;20457;-74
2022/09/10 04:36:39;;;;;;;0.30;0.20;;;15.10;99.90;;;;;;5158680;27;20517;-72
2022/09/10 04:39:05;;;;;;;0.40;0.20;;;15.00;99.90;;;;;;5155990;27;20823;-73
2022/09/10 04:41:32;;;;;;;0.60;0.20;;;14.90;99.90;;;;;;5158243;27;20526;-73
2022/09/10 04:43:59;;;;;;;0.40;0.20;;;14.90;99.90;;;;;;5156452;27;20585;-75
2022/09/10 04:46:26;;;;;;;0.70;0.20;;;14.90;99.90;;;;;;5158718;27;20845;-73
2022/09/10 04:48:55;;;;;;;1.27;0.20;;;14.90;99.90;;;;;;5155122;27;20546;-73
2022/09/10 04:51:21;;;;;;;0.70;0.27;;;14.90;99.90;;;;;;5157823;27;20538;-73
2022/09/10 04:53:48;;;;;;;0.40;0.17;;;15.00;99.90;;;;;;5154920;27;20487;-73
2022/09/10 04:56:16;;;;;;;0.30;0.20;;;15.10;99.90;;;;;;5158197;27;20478;-73
2022/09/10 04:58:43;;;;;;;0.90;0.20;;;15.20;99.90;;;;;;5154455;27;20581;-73
2022/09/10 05:01:11;;;;;;;1.13;0.27;;;15.20;99.90;;;;;;5156390;27;20453;-73
2022/09/10 05:03:38;;;;;;;0.30;0.20;;;15.30;99.90;;;;;;5155473;27;20526;-73
2022/09/10 05:06:06;;;;;;;0.30;0.20;;;15.20;99.90;;;;;;5157462;27;20809;-73
2022/09/10 05:08:33;;;;;;;0.40;0.20;;;15.30;99.90;;;;;;5154560;27;20501;-72
2022/09/10 05:11:01;;;;;;;0.30;0.10;;;15.20;99.90;;;;;;5157812;27;20530;-72
2022/09/10 05:13:29;;;;;;;0.30;0.20;;;15.20;99.90;;;;;;5155113;27;21016;-72
2022/09/10 05:15:56;;;;;;;0.40;0.20;;;15.30;99.90;;;;;;5156779;27;20478;-72
2022/09/10 05:18:24;;;;;;;0.30;0.20;;;15.60;99.90;;;;;;5154449;27;20507;-72
2022/09/10 05:20:52;;;;;;;0.40;0.20;;;15.50;99.90;;;;;;5155979;27;20466;-72
2022/09/10 05:23:20;;;;;;;0.80;0.20;;;15.50;99.90;;;;;;5156242;27;20446;-73
2022/09/10 05:25:47;;;;;;;0.50;0.20;;;15.50;99.90;;;;;;5157990;27;20529;-72
2022/09/10 05:28:15;;;;;;;0.37;0.10;;;15.60;99.90;;;;;;5155328;27;20621;-72
2022/09/10 05:30:42;;;;;;;0.33;0.10;;;15.60;99.90;;;;;;5158164;27;20450;-72
2022/09/10 05:33:08;;;;;;;0.40;0.20;;;15.70;99.90;;;;;;5156484;27;20926;-74
2022/09/10 05:35:35;;;;;;;0.40;0.20;;;15.80;99.90;;;;;;5157442;27;20467;-72
2022/09/10 05:38:02;;;;;;;0.40;0.20;;;15.90;99.90;;;;;;5153526;27;20929;-73
2022/09/10 05:40:30;;;;;;;0.60;0.30;;;16.00;99.90;;;;;;5157227;27;20518;-72
2022/09/10 05:42:59;;;;;;;0.30;0.10;;;15.90;99.90;;;;;;5157906;27;20453;-72
2022/09/10 05:45:26;;;;;;;0.50;0.20;;;15.90;99.90;;;;;;5160683;27;20447;-71
2022/09/10 05:47:52;;;;;;;0.43;0.23;;;15.90;99.90;;;;;;5161294;27;20439;-72
2022/09/10 05:50:19;;;;;;;0.33;0.10;;;15.90;99.90;;;;;;5159215;27;20450;-72
2022/09/10 05:52:47;;;;;;;0.30;0.20;;;15.80;99.90;;;;;;5160635;27;20576;-72
2022/09/10 05:55:13;;;;;;;0.40;0.20;;;15.70;99.90;;;;;;5159539;27;20454;-71
2022/09/10 05:57:42;;;;;;;0.40;0.20;;;15.70;99.90;;;;;;5161146;27;20534;-71
2022/09/10 06:00:10;;;;;;;0.43;0.20;;;15.70;99.90;;;;;;5158755;27;20493;-71
2022/09/10 06:02:37;;;;;;;0.40;0.20;;;15.70;99.90;;;;;;5159533;27;20439;-72
2022/09/10 06:05:04;;;;;;;0.30;0.10;;;15.70;99.90;;;;;;5158412;27;20977;-71
2022/09/10 06:07:31;;;;;;;0.40;0.10;;;15.70;99.90;;;;;;5160460;27;20530;-72
2022/09/10 06:09:58;;;;;;;0.30;0.10;;;15.70;99.90;;;;;;5160415;27;20558;-72
2022/09/10 06:12:26;;;;;;;0.40;0.20;;;15.80;99.90;;;;;;5160356;27;20546;-72
2022/09/10 06:14:54;;;;;;;0.40;0.20;;;15.90;99.90;;;;;;5160489;27;20496;-72
2022/09/10 06:17:21;;;;;;;0.40;0.20;;;15.90;99.90;;;;;;5159929;27;20545;-71
2022/09/10 06:19:50;;;;;;;0.97;0.20;;;16.00;99.90;;;;;;5160775;27;20470;-71
2022/09/10 06:22:17;;;;;;;0.40;0.20;;;15.90;99.90;;;;;;5160021;27;20461;-71
2022/09/10 06:24:47;;;;;;;0.40;0.20;;;16.00;99.90;;;;;;5160584;27;20534;-71
2022/09/10 06:27:14;;;;;;;0.40;0.20;;;15.90;99.90;;;;;;5159291;27;20530;-70
2022/09/10 06:29:41;;;;;;;0.60;0.20;;;15.90;99.90;;;;;;5161283;27;20439;-70
2022/09/10 06:32:09;;;;;;;0.80;0.20;;;15.90;99.90;;;;;;5159386;27;20487;-71
2022/09/10 06:34:36;;;;;;;0.30;0.10;;;16.00;99.90;;;;;;5161044;27;21008;-71
2022/09/10 06:37:04;;;;;;;1.33;0.20;;;16.10;99.90;;;;;;5159439;27;20534;-71
2022/09/10 06:39:30;;;;;;;0.40;0.13;;;16.30;99.90;;;;;;5160428;27;20451;-71
2022/09/10 06:41:57;;;;;;;1.60;0.20;;;16.30;99.90;;;;;;5159779;27;20549;-71
2022/09/10 06:44:25;;;;;;;0.30;0.10;;;16.30;99.90;;;;;;5161216;27;20539;-73
2022/09/10 06:46:53;;;;;;;0.30;0.10;;;16.20;99.90;;;;;;5159391;27;20548;-71
2022/09/10 06:49:22;;;;;;;0.50;0.20;;;16.30;99.90;;;;;;5160894;27;20446;-71
2022/09/10 06:51:49;;;;;;;0.50;0.20;;;16.20;99.90;;;;;;5157873;27;20451;-71
2022/09/10 06:54:16;;;;;;;0.53;0.10;;;16.20;99.90;;;;;;5161537;27;20228;-71
2022/09/10 06:56:45;;;;;;;0.40;0.20;;;16.20;99.90;;;;;;5158103;27;20451;-71
2022/09/10 06:59:13;;;;;;;0.30;0.10;;;16.50;99.90;;;;;;5159806;27;20443;-72
2022/09/10 07:01:40;;;;;;;0.43;0.20;;;16.70;99.90;;;;;;5159213;27;20461;-70
2022/09/10 07:04:08;;;;;;;0.30;0.10;;;16.70;99.90;;;;;;5159279;27;20446;-72
2022/09/10 07:06:38;;;;;;;0.40;0.20;;;16.60;99.90;;;;;;5156606;27;20451;-70
2022/09/10 07:09:05;;;;;;;0.50;0.20;;;16.70;99.90;;;;;;5159333;27;20912;-69
2022/09/10 07:11:33;;;;;;;0.40;0.10;;;16.80;99.90;;;;;;5157790;27;20557;-71
2022/09/10 07:14:00;;;;;;;0.30;0.10;;;16.70;99.90;;;;;;5159074;27;20475;-71
2022/09/10 07:16:28;;;;;;;0.43;0.20;;;16.90;99.90;;;;;;5157266;27;20490;-71
2022/09/10 07:18:56;;;;;;;0.40;0.10;;;17.10;99.90;;;;;;5159501;27;20822;-71
2022/09/10 07:21:26;;;;;;;0.30;0.20;;;17.10;99.90;;;;;;5157265;27;20486;-71
2022/09/10 07:23:57;;;;;;;0.30;0.10;;;17.30;99.90;;;;;;5159106;27;20439;-71
2022/09/10 07:26:24;;;;;;;0.30;0.10;;;17.20;99.90;;;;;;5157046;27;20450;-72
2022/09/10 07:28:52;;;;;;;0.43;0.20;;;17.00;99.90;;;;;;5159628;27;20454;-71
2022/09/10 07:31:21;;;;;;;0.37;0.20;;;17.10;99.90;;;;;;5158568;27;20458;-71
2022/09/10 07:33:49;;;;;;;0.40;0.20;;;17.20;99.90;;;;;;5158005;27;20482;-70
2022/09/10 07:36:17;;;;;;;0.50;0.13;;;17.30;99.90;;;;;;5159737;27;21025;-71
2022/09/10 07:38:44;;;;;;;0.40;0.13;;;17.20;99.90;;;;;;5158103;27;20622;-70
2022/09/10 07:41:15;;;;;;;1.50;0.80;;;17.20;99.90;;;;;;5157946;27;20538;-71
2022/09/10 07:43:43;;;;;;;0.30;0.20;;;17.30;99.90;;;;;;5158290;27;20450;-71
2022/09/10 07:46:13;;;;;;;0.30;0.20;;;17.50;99.90;;;;;;5160610;27;20447;-71
2022/09/10 07:48:40;;;;;;;0.90;0.20;;;17.80;99.90;;;;;;5158590;27;20516;-71
2022/09/10 07:51:09;;;;;;;0.30;0.10;;;17.60;86.30;;;;;;5157982;27;20480;-70
2022/09/10 07:53:37;;;;;;;0.30;0.10;;;17.50;99.20;;;;;;5156239;27;20478;-71
2022/09/10 07:56:05;;;;;;;0.70;0.20;;;17.30;99.90;;;;;;5158222;27;20504;-71
2022/09/10 07:58:37;;;;;;;0.30;0.20;;;17.10;99.90;;;;;;5155454;27;20446;-73
2022/09/10 08:01:10;;;;;;;1.60;0.20;;;17.20;99.90;;;;;;5159018;27;21083;-72
2022/09/10 08:03:37;;;;;;;0.40;0.20;;;17.30;99.90;;;;;;5159530;27;20483;-70
2022/09/10 08:06:05;;;;;;;0.30;0.10;;;17.60;99.90;;;;;;5158407;27;20750;-70
2022/09/10 08:08:34;;;;;;;0.30;0.20;;;17.80;96.20;;;;;;5158534;27;20538;-70
2022/09/10 08:11:08;;;;;;;0.40;0.20;;;17.80;76.10;;;;;;5158452;27;20885;-71
2022/09/10 08:13:37;;;;;;;0.30;0.10;;;17.70;94.30;;;;;;5170702;27;20514;-70
2022/09/10 08:16:09;;;;;;;0.40;0.20;;;17.70;99.90;;;;;;5160074;27;20519;-70
2022/09/10 08:18:36;;;;;;;0.40;0.20;;;17.50;91.30;;;;;;5159308;27;20533;-71
2022/09/10 08:21:03;;;;;;;0.40;0.20;;;17.50;99.90;;;;;;5157395;27;20511;-70
2022/09/10 08:23:30;;;;;;;0.40;0.20;;;17.60;99.90;;;;;;5158978;27;20898;-71
2022/09/10 08:25:58;;;;;;;0.40;0.20;;;17.70;96.10;;;;;;5157035;27;20459;-71
2022/09/10 08:28:26;;;;;;;0.50;0.10;;;17.70;96.40;;;;;;5158382;27;20732;-70
2022/09/10 08:30:59;;;;;;;0.60;0.10;;;17.80;88.70;;;;;;5155794;27;20914;-72
2022/09/10 08:33:26;;;;;;;0.40;0.20;;;18.00;83.60;;;;;;5157972;27;20481;-71
2022/09/10 08:35:55;;;;;;;0.97;0.13;;;18.10;64.50;;;;;;5156710;27;20540;-70
2022/09/10 08:38:24;;;;;;;0.90;0.20;;;18.00;71.70;;;;;;5158206;27;20435;-71
2022/09/10 08:40:51;;;;;;;0.30;0.13;;;18.20;60.70;;;;;;5155967;27;20762;-71
2022/09/10 08:43:26;;;;;;;0.30;0.10;;;18.20;38.70;;;;;;5157981;27;20446;-71
2022/09/10 08:45:56;;;;;;;0.60;0.20;;;18.30;45.10;;;;;;5158020;27;20485;-70
2022/09/10 08:48:28;;;;;;;0.50;0.10;;;18.50;21.80;;;;;;5156955;27;20529;-71
2022/09/10 08:50:59;;;;;;;0.40;0.17;;;18.60;1.00;;;;;;5157685;27;20944;-71
2022/09/10 08:53:33;;;;;;;0.50;0.10;;;18.70;1.00;;;;;;5155791;27;21019;-71
2022/09/10 08:56:04;;;;;;;0.60;0.20;;;18.90;1.00;;;;;;5157539;27;20480;-71
2022/09/10 08:58:41;;;;;;;0.40;0.20;;;19.00;1.00;;;;;;5155736;27;20447;-70
2022/09/10 09:01:14;;;;;;;0.53;0.10;;;19.00;1.00;;;;;;5134324;27;20512;-71
2022/09/10 09:03:46;;;;;;;0.40;0.20;;;18.90;1.00;;;;;;5129271;28;20439;-70
2022/09/10 09:06:25;;;;;;;0.30;0.20;;;18.70;1.00;;;;;;5124992;28;20913;-71
2022/09/10 09:08:53;;;;;;;0.60;0.10;;;18.80;1.00;;;;;;5113619;28;20495;-69
2022/09/10 09:11:27;;;;;;;0.40;0.17;;;18.70;1.00;;;;;;5115786;28;20814;-70
2022/09/10 09:14:14;;;;;;;0.40;0.20;;;18.80;1.00;;;;;;5114481;28;20515;-69
2022/09/10 09:16:54;;;;;;;0.40;0.17;;;19.00;1.00;;;;;;5133178;28;20506;-70
2022/09/10 09:19:32;;;;;;;0.30;0.10;;;19.00;1.00;;;;;;5136895;27;20767;-69
2022/09/10 09:22:06;;;;;;;1.27;0.20;;;19.00;1.00;;;;;;5141108;27;20550;-70
2022/09/10 09:24:44;;;;;;;0.47;0.20;;;19.30;1.00;;;;;;5141243;27;20450;-71
2022/09/10 09:27:16;;;;;;;0.33;0.20;;;19.40;1.00;;;;;;5139068;27;20800;-70
2022/09/10 09:29:49;;;;;;;0.47;0.20;;;19.40;1.00;;;;;;5140435;27;20443;-72
2022/09/10 09:32:19;;;;;;;0.50;0.33;;;19.50;99.90;;;;;;5140158;27;21003;-71
2022/09/10 09:34:54;;;;;;;0.30;0.10;;;19.60;1.00;;;;;;5139511;27;20570;-71
2022/09/10 09:37:24;;;;;;;0.30;0.20;;;19.80;1.00;;;;;;5138303;27;20443;-70
2022/09/10 09:40:03;;;;;;;0.40;0.20;;;20.10;1.00;;;;;;5140439;27;20828;-72
2022/09/10 09:42:39;;;;;;;0.60;0.20;;;20.10;1.00;;;;;;5137927;27;20921;-72
2022/09/10 09:45:16;;;;;;;2.80;0.20;;;20.10;1.00;;;;;;5133948;27;20450;-69
2022/09/10 09:47:45;;;;;;;0.80;0.10;;;19.60;99.90;;;;;;5139616;27;20477;-72
2022/09/10 09:50:18;;;;;;;0.90;0.20;;;19.70;1.00;;;;;;5139841;27;20444;-71
2022/09/10 09:52:47;;;;;;;0.40;0.20;;;19.40;99.90;;;;;;5138416;27;20551;-71
2022/09/10 09:55:23;;;;;;;0.30;0.20;;;19.70;1.00;;;;;;5138908;27;20537;-72
2022/09/10 09:57:58;;;;;;;0.50;0.20;;;19.50;99.90;;;;;;5136937;27;20450;-71
2022/09/10 10:00:36;;;;;;;0.30;0.10;;;19.50;1.00;;;;;;5139616;27;20486;-71
2022/09/10 10:03:07;;;;;;;0.60;0.10;;;19.50;99.90;;;;;;5136569;27;20633;-71
2022/09/10 10:05:35;;;;;;;0.33;0.10;;;19.60;1.00;;;;;;5158906;27;20493;-72
2022/09/10 10:08:05;;;;;;;0.30;0.20;;;19.90;99.90;;;;;;5157608;27;20461;-71
2022/09/10 10:10:35;;;;;;;0.30;0.10;;;19.70;99.90;;;;;;5158968;27;20556;-72
2022/09/10 10:13:02;;;;;;;0.73;0.20;;;19.60;1.00;;;;;;5142822;27;20826;-70
2022/09/10 10:15:38;;;;;;;0.30;0.20;;;19.80;1.00;;;;;;5139248;27;20539;-72
2022/09/10 10:18:30;;;;;;;1.33;0.20;;;19.90;99.90;;;;;;5129111;27;20451;-72
2022/09/10 10:21:20;;;;;;;0.30;0.10;;;20.10;99.90;;;;;;5133196;27;20879;-71
2022/09/10 10:23:48;;;;;;;0.30;0.10;;;20.20;99.90;;;;;;5130180;27;20459;-72
2022/09/10 10:26:34;;;;;;;0.50;0.17;;;20.30;99.90;;;;;;5118450;27;21062;-72
2022/09/10 10:29:05;;;;;;;0.50;0.20;;;20.20;99.90;;;;;;5122951;27;20451;-72
2022/09/10 10:31:36;;;;;;;1.33;0.20;;;20.30;1.00;;;;;;5120107;27;20450;-72
2022/09/10 10:34:28;;;;;;;0.43;0.20;;;20.40;99.90;;;;;;5136007;27;20578;-70
2022/09/10 10:37:14;;;;;;;0.50;0.20;;;20.30;99.90;;;;;;5132612;27;20475;-71
2022/09/10 10:39:59;;;;;;;0.40;0.20;;;20.10;99.90;;;;;;5117672;27;20502;-70
2022/09/10 10:42:31;;;;;;;0.30;0.20;;;19.80;99.90;;;;;;5136364;27;20859;-72
2022/09/10 10:45:18;;;;;;;0.40;0.20;;;19.80;99.90;;;;;;5126117;27;20497;-72
2022/09/10 10:47:49;;;;;;;0.97;0.20;;;20.10;99.90;;;;;;5130634;27;20487;-71
2022/09/10 10:50:31;;;;;;;1.03;0.33;;;20.10;99.90;;;;;;5133193;27;20469;-73
2022/09/10 10:53:17;;;;;;;0.43;0.20;;;20.60;1.00;;;;;;5131047;27;20482;-71
2022/09/10 10:55:49;;;;;;;0.30;0.10;;;21.20;99.90;;;;;;5136603;27;20536;-72
2022/09/10 10:58:46;;;;;;;0.30;0.10;;;21.40;99.90;;;;;;5134336;27;20512;-70
2022/09/10 11:04:13;;;;;;;0.40;0.20;;;21.30;1.00;;;;;;5111239;28;20449;-71
2022/09/10 11:06:48;;;;;;;1.50;0.20;;;21.10;1.00;;;;;;5116647;28;20535;-71
2022/09/10 11:09:20;;;;;;;0.30;0.10;;;21.50;1.00;;;;;;5115421;28;20973;-73
2022/09/10 11:11:55;;;;;;;0.30;0.10;;;21.70;1.00;;;;;;5115735;28;20447;-72
2022/09/10 11:14:28;;;;;;;0.50;0.20;;;21.60;1.00;;;;;;5114121;28;20479;-72
2022/09/10 11:17:01;;;;;;;0.40;0.20;;;21.30;1.00;;;;;;5115897;28;20664;-72
2022/09/10 11:19:34;;;;;;;0.50;0.20;;;20.90;1.00;;;;;;5116272;28;20471;-72
2022/09/10 11:22:06;;;;;;;0.30;0.20;;;20.90;99.90;;;;;;5127743;27;21049;-70
2022/09/10 11:24:42;;;;;;;0.40;0.20;;;21.20;1.00;;;;;;5135908;27;20448;-72
2022/09/10 11:27:14;;;;;;;0.30;0.20;;;21.80;99.90;;;;;;5124305;27;20448;-72
2022/09/10 11:29:47;;;;;;;0.30;0.17;;;22.30;99.90;;;;;;5138266;27;20532;-71
2022/09/10 11:32:25;;;;;;;0.40;0.20;;;22.30;44.50;;;;;;5133414;27;20439;-72
2022/09/10 11:34:58;;;;;;;1.40;0.20;;;22.30;99.90;;;;;;5135117;27;20516;-71
2022/09/10 11:37:34;;;;;;;0.50;0.20;;;22.10;99.90;;;;;;5135675;27;20910;-71
2022/09/10 11:40:11;;;;;;;0.40;0.20;;;21.80;99.90;;;;;;5135527;27;20451;-72
2022/09/10 11:42:45;;;;;;;0.57;0.10;;;21.50;99.90;;;;;;5107959;28;20453;-71
2022/09/10 11:45:20;;;;;;;0.73;0.20;;;21.20;99.90;;;;;;5125431;27;20530;-71
2022/09/10 11:47:55;;;;;;;1.20;0.30;;;20.80;1.00;;;;;;5116422;27;21065;-71
2022/09/10 11:50:34;;;;;;;0.80;0.20;;;20.70;6.90;;;;;;5125816;27;20551;-70
2022/09/10 11:53:06;;;;;;;0.30;0.20;;;20.50;1.00;;;;;;5130020;27;20477;-70
2022/09/10 11:55:50;;;;;;;0.37;0.20;;;20.30;21.00;;;;;;5136046;27;20480;-71
2022/09/10 11:58:26;;;;;;;0.30;0.10;;;20.30;99.90;;;;;;5134397;27;21073;-71
2022/09/10 12:01:02;;;;;;;0.53;0.20;;;20.60;99.90;;;;;;5136455;27;20447;-71
2022/09/10 12:04:04;;;;;;;0.50;0.20;;;20.90;1.00;;;;;;5137826;27;20464;-71
2022/09/10 12:06:37;;;;;;;0.40;0.10;;;21.20;1.00;;;;;;5137259;27;20500;-71
2022/09/10 12:09:13;;;;;;;0.40;0.20;;;21.40;1.00;;;;;;5135918;27;20802;-71
2022/09/10 12:11:53;;;;;;;0.47;0.20;;;21.20;1.00;;;;;;5136593;27;20871;-72
2022/09/10 12:14:20;;;;;;;1.03;0.20;;;21.30;1.00;;;;;;5134002;27;20455;-71
2022/09/10 12:16:52;;;;;;;0.50;0.10;;;21.30;1.00;;;;;;5136161;27;20883;-71
2022/09/10 12:19:26;;;;;;;0.40;0.20;;;21.10;1.00;;;;;;5125461;27;21224;-72
2022/09/10 12:21:57;;;;;;;0.70;0.13;;;20.90;1.00;;;;;;5134628;27;20508;-72
2022/09/10 12:24:30;;;;;;;0.40;0.20;;;20.80;1.00;;;;;;5136321;27;20463;-72
2022/09/10 12:27:00;;;;;;;0.30;0.10;;;20.50;1.00;;;;;;5133606;27;20451;-72
2022/09/10 12:29:33;;;;;;;0.50;0.30;;;20.40;99.90;;;;;;5136065;27;20496;-72
2022/09/10 12:32:37;;;;;;;0.50;0.13;;;20.50;99.90;;;;;;5134225;27;20480;-71
2022/09/10 12:35:40;;;;;;;0.30;0.10;;;20.70;1.00;;;;;;5134811;27;20515;-71
2022/09/10 12:38:44;;;;;;;0.43;0.20;;;20.90;1.00;;;;;;5120684;27;20875;-72
2022/09/10 12:41:13;;;;;;;1.00;0.20;;;21.10;1.00;;;;;;5134183;27;20440;-71
2022/09/10 12:43:56;;;;;;;0.43;0.20;;;21.30;99.90;;;;;;5136119;27;20881;-71
2022/09/10 12:46:24;;;;;;;0.30;0.20;;;21.20;1.00;;;;;;5132292;27;20547;-70
2022/09/10 12:49:05;;;;;;;0.50;0.20;;;21.40;1.00;;;;;;5134947;27;21088;-71
2022/09/10 12:51:41;;;;;;;0.83;0.20;;;21.40;1.00;;;;;;5135522;27;20538;-71
2022/09/10 12:54:37;;;;;;;0.40;0.20;;;21.20;99.90;;;;;;5132186;27;20471;-72
2022/09/10 12:57:26;;;;;;;0.43;0.10;;;20.80;1.00;;;;;;5132032;28;20537;-72
2022/09/10 13:00:20;;;;;;;0.40;0.20;;;20.70;1.00;;;;;;5123556;28;20451;-72
2022/09/10 13:02:51;;;;;;;0.50;0.20;;;20.50;1.00;;;;;;5132588;28;20706;-72
2022/09/10 13:05:24;;;;;;;0.60;0.20;;;20.20;1.00;;;;;;5133129;28;20871;-71
2022/09/10 13:08:01;;;;;;;0.33;0.20;;;20.40;99.90;;;;;;5133643;28;20452;-72
2022/09/10 13:10:29;;;;;;;0.50;0.20;;;20.70;1.00;;;;;;5134629;28;20685;-71
2022/09/10 13:13:03;;;;;;;0.50;0.20;;;21.00;1.00;;;;;;5133627;28;20451;-71